sensor_id;sensor_type;location;lat;lon;timestamp;P1;durP1;ratioP1;P2;durP2;ratioP2
1178;SDS011;578;48.408;10.004;2022-12-20T00:02:25;52.33;;;26.60;;
1178;SDS011;578;48.408;10.004;2022-12-20T00:04:52;49.58;;;26.05;;
1178;SDS011;578;48.408;10.004;2022-12-20T00:07:18;38.45;;;24.15;;
1178;SDS011;578;48.408;10.004;2022-12-20T00:09:45;40.08;;;23.38;;
1178;SDS011;578;48.408;10.004;2022-12-20T00:12:12;38.60;;;23.10;;
1178;SDS011;578;48.408;10.004;2022-12-20T00:14:40;44.40;;;23.23;;
1178;SDS011;578;48.408;10.004;2022-12-20T00:17:07;48.03;;;25.00;;
1178;SDS011;578;48.408;10.004;2022-12-20T00:19:34;45.00;;;23.10;;
1178;SDS011;578;48.408;10.004;2022-12-20T00:22:00;45.38;;;23.88;;
1178;SDS011;578;48.408;10.004;2022-12-20T00:24:27;53.97;;;24.60;;
1178;SDS011;578;48.408;10.004;2022-12-20T00:26:54;54.60;;;25.73;;
1178;SDS011;578;48.408;10.004;2022-12-20T00:29:20;47.28;;;24.58;;
1178;SDS011;578;48.408;10.004;2022-12-20T00:31:49;53.35;;;26.10;;
1178;SDS011;578;48.408;10.004;2022-12-20T00:34:15;39.50;;;24.40;;
1178;SDS011;578;48.408;10.004;2022-12-20T00:36:42;46.35;;;24.77;;
1178;SDS011;578;48.408;10.004;2022-12-20T00:39:09;48.95;;;23.75;;
1178;SDS011;578;48.408;10.004;2022-12-20T00:41:36;49.80;;;24.45;;
1178;SDS011;578;48.408;10.004;2022-12-20T00:44:03;40.08;;;22.98;;
1178;SDS011;578;48.408;10.004;2022-12-20T00:46:30;49.55;;;23.98;;
1178;SDS011;578;48.408;10.004;2022-12-20T00:48:59;45.17;;;24.27;;
1178;SDS011;578;48.408;10.004;2022-12-20T00:51:27;45.45;;;23.60;;
1178;SDS011;578;48.408;10.004;2022-12-20T00:53:55;47.25;;;24.73;;
1178;SDS011;578;48.408;10.004;2022-12-20T00:56:22;55.58;;;26.15;;
1178;SDS011;578;48.408;10.004;2022-12-20T00:58:48;63.72;;;25.13;;
1178;SDS011;578;48.408;10.004;2022-12-20T01:01:17;51.80;;;22.58;;
1178;SDS011;578;48.408;10.004;2022-12-20T01:03:45;48.03;;;25.92;;
1178;SDS011;578;48.408;10.004;2022-12-20T01:06:13;46.92;;;24.60;;
1178;SDS011;578;48.408;10.004;2022-12-20T01:08:41;45.00;;;22.45;;
1178;SDS011;578;48.408;10.004;2022-12-20T01:11:10;54.75;;;24.38;;
1178;SDS011;578;48.408;10.004;2022-12-20T01:13:39;44.20;;;22.77;;
1178;SDS011;578;48.408;10.004;2022-12-20T01:16:08;51.95;;;24.20;;
1178;SDS011;578;48.408;10.004;2022-12-20T01:18:37;48.60;;;25.02;;
1178;SDS011;578;48.408;10.004;2022-12-20T01:21:05;48.35;;;23.23;;
1178;SDS011;578;48.408;10.004;2022-12-20T01:23:34;51.65;;;24.05;;
1178;SDS011;578;48.408;10.004;2022-12-20T01:26:02;51.83;;;25.50;;
1178;SDS011;578;48.408;10.004;2022-12-20T01:28:33;48.30;;;22.63;;
1178;SDS011;578;48.408;10.004;2022-12-20T01:31:00;42.40;;;23.73;;
1178;SDS011;578;48.408;10.004;2022-12-20T01:33:27;40.30;;;23.20;;
1178;SDS011;578;48.408;10.004;2022-12-20T01:35:54;53.10;;;25.35;;
1178;SDS011;578;48.408;10.004;2022-12-20T01:38:22;51.50;;;23.67;;
1178;SDS011;578;48.408;10.004;2022-12-20T01:40:50;52.92;;;26.60;;
1178;SDS011;578;48.408;10.004;2022-12-20T01:43:18;48.33;;;25.20;;
1178;SDS011;578;48.408;10.004;2022-12-20T01:45:46;49.38;;;23.13;;
1178;SDS011;578;48.408;10.004;2022-12-20T01:48:13;56.65;;;28.33;;
1178;SDS011;578;48.408;10.004;2022-12-20T01:50:43;57.70;;;27.00;;
1178;SDS011;578;48.408;10.004;2022-12-20T01:53:10;46.15;;;25.02;;
1178;SDS011;578;48.408;10.004;2022-12-20T01:55:37;54.50;;;26.13;;
1178;SDS011;578;48.408;10.004;2022-12-20T01:58:06;53.97;;;27.52;;
1178;SDS011;578;48.408;10.004;2022-12-20T02:00:35;58.83;;;27.02;;
1178;SDS011;578;48.408;10.004;2022-12-20T02:03:03;54.33;;;25.38;;
1178;SDS011;578;48.408;10.004;2022-12-20T02:05:33;54.05;;;28.85;;
1178;SDS011;578;48.408;10.004;2022-12-20T02:08:02;48.72;;;25.00;;
1178;SDS011;578;48.408;10.004;2022-12-20T02:10:33;48.90;;;24.90;;
1178;SDS011;578;48.408;10.004;2022-12-20T02:13:11;52.70;;;21.58;;
1178;SDS011;578;48.408;10.004;2022-12-20T02:15:46;43.90;;;21.65;;
1178;SDS011;578;48.408;10.004;2022-12-20T02:18:19;44.67;;;23.67;;
1178;SDS011;578;48.408;10.004;2022-12-20T02:20:53;40.92;;;22.95;;
1178;SDS011;578;48.408;10.004;2022-12-20T02:23:47;54.58;;;27.70;;
1178;SDS011;578;48.408;10.004;2022-12-20T02:26:47;44.40;;;23.92;;
1178;SDS011;578;48.408;10.004;2022-12-20T02:29:28;46.30;;;24.15;;
1178;SDS011;578;48.408;10.004;2022-12-20T02:32:03;45.53;;;24.33;;
1178;SDS011;578;48.408;10.004;2022-12-20T02:34:38;50.35;;;22.35;;
1178;SDS011;578;48.408;10.004;2022-12-20T02:37:06;51.83;;;23.08;;
1178;SDS011;578;48.408;10.004;2022-12-20T02:39:33;51.65;;;25.98;;
1178;SDS011;578;48.408;10.004;2022-12-20T02:42:02;58.83;;;25.50;;
1178;SDS011;578;48.408;10.004;2022-12-20T02:44:32;44.20;;;22.50;;
1178;SDS011;578;48.408;10.004;2022-12-20T02:47:20;45.13;;;20.42;;
1178;SDS011;578;48.408;10.004;2022-12-20T02:49:51;58.10;;;26.52;;
1178;SDS011;578;48.408;10.004;2022-12-20T02:52:21;47.20;;;22.83;;
1178;SDS011;578;48.408;10.004;2022-12-20T02:54:51;46.80;;;22.25;;
1178;SDS011;578;48.408;10.004;2022-12-20T02:57:19;49.63;;;25.05;;
1178;SDS011;578;48.408;10.004;2022-12-20T02:59:53;36.80;;;20.63;;
1178;SDS011;578;48.408;10.004;2022-12-20T03:02:24;43.03;;;20.60;;
1178;SDS011;578;48.408;10.004;2022-12-20T03:04:51;51.22;;;24.33;;
1178;SDS011;578;48.408;10.004;2022-12-20T03:07:19;50.08;;;24.55;;
1178;SDS011;578;48.408;10.004;2022-12-20T03:09:47;45.03;;;23.40;;
1178;SDS011;578;48.408;10.004;2022-12-20T03:12:14;46.97;;;24.05;;
1178;SDS011;578;48.408;10.004;2022-12-20T03:14:41;45.15;;;22.20;;
1178;SDS011;578;48.408;10.004;2022-12-20T03:17:08;37.55;;;23.98;;
1178;SDS011;578;48.408;10.004;2022-12-20T03:19:36;52.15;;;23.35;;
1178;SDS011;578;48.408;10.004;2022-12-20T03:22:03;51.03;;;22.50;;
1178;SDS011;578;48.408;10.004;2022-12-20T03:24:30;41.33;;;23.17;;
1178;SDS011;578;48.408;10.004;2022-12-20T03:26:57;41.72;;;21.20;;
1178;SDS011;578;48.408;10.004;2022-12-20T03:29:24;45.35;;;21.00;;
1178;SDS011;578;48.408;10.004;2022-12-20T03:31:51;45.45;;;23.52;;
1178;SDS011;578;48.408;10.004;2022-12-20T03:34:18;48.67;;;24.90;;
1178;SDS011;578;48.408;10.004;2022-12-20T03:36:46;58.92;;;23.70;;
1178;SDS011;578;48.408;10.004;2022-12-20T03:39:13;45.25;;;21.70;;
1178;SDS011;578;48.408;10.004;2022-12-20T03:41:40;42.00;;;23.80;;
1178;SDS011;578;48.408;10.004;2022-12-20T03:44:07;43.65;;;21.48;;
1178;SDS011;578;48.408;10.004;2022-12-20T03:46:34;47.80;;;23.35;;
1178;SDS011;578;48.408;10.004;2022-12-20T03:49:00;50.90;;;23.65;;
1178;SDS011;578;48.408;10.004;2022-12-20T03:51:27;43.25;;;23.42;;
1178;SDS011;578;48.408;10.004;2022-12-20T03:53:55;39.15;;;19.58;;
1178;SDS011;578;48.408;10.004;2022-12-20T03:56:22;45.33;;;20.58;;
1178;SDS011;578;48.408;10.004;2022-12-20T03:58:49;40.95;;;21.40;;
1178;SDS011;578;48.408;10.004;2022-12-20T04:01:19;58.88;;;23.80;;
1178;SDS011;578;48.408;10.004;2022-12-20T04:03:46;38.97;;;21.48;;
1178;SDS011;578;48.408;10.004;2022-12-20T04:06:13;48.97;;;22.00;;
1178;SDS011;578;48.408;10.004;2022-12-20T04:08:41;46.55;;;22.17;;
1178;SDS011;578;48.408;10.004;2022-12-20T04:11:09;42.80;;;23.80;;
1178;SDS011;578;48.408;10.004;2022-12-20T04:13:41;45.22;;;23.02;;
1178;SDS011;578;48.408;10.004;2022-12-20T04:16:08;44.25;;;22.67;;
1178;SDS011;578;48.408;10.004;2022-12-20T04:18:36;45.83;;;21.77;;
1178;SDS011;578;48.408;10.004;2022-12-20T04:21:02;45.13;;;23.48;;
1178;SDS011;578;48.408;10.004;2022-12-20T04:23:31;49.95;;;24.10;;
1178;SDS011;578;48.408;10.004;2022-12-20T04:25:58;48.38;;;23.75;;
1178;SDS011;578;48.408;10.004;2022-12-20T04:28:26;46.05;;;23.33;;
1178;SDS011;578;48.408;10.004;2022-12-20T04:30:53;39.78;;;22.65;;
1178;SDS011;578;48.408;10.004;2022-12-20T04:33:20;44.03;;;23.02;;
1178;SDS011;578;48.408;10.004;2022-12-20T04:35:47;42.65;;;23.42;;
1178;SDS011;578;48.408;10.004;2022-12-20T04:38:14;41.13;;;22.40;;
1178;SDS011;578;48.408;10.004;2022-12-20T04:40:41;40.72;;;20.63;;
1178;SDS011;578;48.408;10.004;2022-12-20T04:43:07;38.88;;;21.27;;
1178;SDS011;578;48.408;10.004;2022-12-20T04:45:36;43.35;;;23.17;;
1178;SDS011;578;48.408;10.004;2022-12-20T04:48:02;45.80;;;21.88;;
1178;SDS011;578;48.408;10.004;2022-12-20T04:50:30;38.13;;;21.92;;
1178;SDS011;578;48.408;10.004;2022-12-20T04:52:56;48.03;;;22.55;;
1178;SDS011;578;48.408;10.004;2022-12-20T04:55:41;47.75;;;22.55;;
1178;SDS011;578;48.408;10.004;2022-12-20T04:58:08;37.20;;;22.05;;
1178;SDS011;578;48.408;10.004;2022-12-20T05:00:36;43.13;;;21.05;;
1178;SDS011;578;48.408;10.004;2022-12-20T05:03:03;39.75;;;23.73;;
1178;SDS011;578;48.408;10.004;2022-12-20T05:05:29;40.83;;;23.23;;
1178;SDS011;578;48.408;10.004;2022-12-20T05:07:56;47.45;;;21.70;;
1178;SDS011;578;48.408;10.004;2022-12-20T05:10:23;50.70;;;21.52;;
1178;SDS011;578;48.408;10.004;2022-12-20T05:12:50;54.33;;;23.73;;
1178;SDS011;578;48.408;10.004;2022-12-20T05:15:17;48.50;;;21.63;;
1178;SDS011;578;48.408;10.004;2022-12-20T05:17:45;54.67;;;24.45;;
1178;SDS011;578;48.408;10.004;2022-12-20T05:20:12;40.85;;;22.65;;
1178;SDS011;578;48.408;10.004;2022-12-20T05:22:39;56.83;;;24.48;;
1178;SDS011;578;48.408;10.004;2022-12-20T05:25:23;42.78;;;22.55;;
1178;SDS011;578;48.408;10.004;2022-12-20T05:28:07;47.50;;;22.63;;
1178;SDS011;578;48.408;10.004;2022-12-20T05:30:34;44.20;;;21.13;;
1178;SDS011;578;48.408;10.004;2022-12-20T05:33:02;50.80;;;22.17;;
1178;SDS011;578;48.408;10.004;2022-12-20T05:35:29;49.40;;;27.90;;
1178;SDS011;578;48.408;10.004;2022-12-20T05:37:56;39.47;;;22.17;;
1178;SDS011;578;48.408;10.004;2022-12-20T05:40:22;39.25;;;20.27;;
1178;SDS011;578;48.408;10.004;2022-12-20T05:42:49;44.28;;;23.13;;
1178;SDS011;578;48.408;10.004;2022-12-20T05:45:16;44.45;;;21.15;;
1178;SDS011;578;48.408;10.004;2022-12-20T05:47:42;40.90;;;21.08;;
1178;SDS011;578;48.408;10.004;2022-12-20T05:50:11;43.22;;;22.25;;
1178;SDS011;578;48.408;10.004;2022-12-20T05:52:38;39.75;;;21.67;;
1178;SDS011;578;48.408;10.004;2022-12-20T05:55:04;44.55;;;21.58;;
1178;SDS011;578;48.408;10.004;2022-12-20T05:57:31;50.88;;;21.95;;
1178;SDS011;578;48.408;10.004;2022-12-20T05:59:58;40.47;;;20.52;;
1178;SDS011;578;48.408;10.004;2022-12-20T06:02:25;37.17;;;21.27;;
1178;SDS011;578;48.408;10.004;2022-12-20T06:04:52;46.85;;;22.23;;
1178;SDS011;578;48.408;10.004;2022-12-20T06:07:20;50.83;;;24.50;;
1178;SDS011;578;48.408;10.004;2022-12-20T06:09:46;39.90;;;21.83;;
1178;SDS011;578;48.408;10.004;2022-12-20T06:12:13;40.47;;;22.20;;
1178;SDS011;578;48.408;10.004;2022-12-20T06:14:40;57.15;;;23.30;;
1178;SDS011;578;48.408;10.004;2022-12-20T06:17:06;39.78;;;22.85;;
1178;SDS011;578;48.408;10.004;2022-12-20T06:19:33;37.55;;;21.17;;
1178;SDS011;578;48.408;10.004;2022-12-20T06:22:00;47.38;;;23.20;;
1178;SDS011;578;48.408;10.004;2022-12-20T06:24:28;40.88;;;21.30;;
1178;SDS011;578;48.408;10.004;2022-12-20T06:26:55;63.40;;;23.98;;
1178;SDS011;578;48.408;10.004;2022-12-20T06:29:22;36.22;;;22.00;;
1178;SDS011;578;48.408;10.004;2022-12-20T06:31:49;48.13;;;22.67;;
1178;SDS011;578;48.408;10.004;2022-12-20T06:34:15;40.20;;;23.20;;
1178;SDS011;578;48.408;10.004;2022-12-20T06:36:42;41.75;;;22.80;;
1178;SDS011;578;48.408;10.004;2022-12-20T06:39:09;40.83;;;22.55;;
1178;SDS011;578;48.408;10.004;2022-12-20T06:41:38;40.03;;;22.25;;
1178;SDS011;578;48.408;10.004;2022-12-20T06:44:05;40.22;;;22.45;;
1178;SDS011;578;48.408;10.004;2022-12-20T06:46:32;39.03;;;21.45;;
1178;SDS011;578;48.408;10.004;2022-12-20T06:48:59;40.00;;;22.17;;
1178;SDS011;578;48.408;10.004;2022-12-20T06:51:26;43.00;;;20.08;;
1178;SDS011;578;48.408;10.004;2022-12-20T06:53:53;47.67;;;25.42;;
1178;SDS011;578;48.408;10.004;2022-12-20T06:56:19;45.20;;;24.20;;
1178;SDS011;578;48.408;10.004;2022-12-20T06:58:47;43.35;;;22.23;;
1178;SDS011;578;48.408;10.004;2022-12-20T07:01:14;34.97;;;22.48;;
1178;SDS011;578;48.408;10.004;2022-12-20T07:03:41;38.25;;;20.33;;
1178;SDS011;578;48.408;10.004;2022-12-20T07:06:07;40.80;;;21.35;;
1178;SDS011;578;48.408;10.004;2022-12-20T07:08:34;36.65;;;20.40;;
1178;SDS011;578;48.408;10.004;2022-12-20T07:11:04;44.50;;;21.58;;
1178;SDS011;578;48.408;10.004;2022-12-20T07:13:31;38.83;;;20.77;;
1178;SDS011;578;48.408;10.004;2022-12-20T07:16:00;42.78;;;24.25;;
1178;SDS011;578;48.408;10.004;2022-12-20T07:18:28;49.53;;;20.98;;
1178;SDS011;578;48.408;10.004;2022-12-20T07:20:58;37.78;;;19.10;;
1178;SDS011;578;48.408;10.004;2022-12-20T07:23:25;32.08;;;20.17;;
1178;SDS011;578;48.408;10.004;2022-12-20T07:25:53;35.53;;;20.17;;
1178;SDS011;578;48.408;10.004;2022-12-20T07:28:20;42.65;;;21.73;;
1178;SDS011;578;48.408;10.004;2022-12-20T07:30:47;48.28;;;21.55;;
1178;SDS011;578;48.408;10.004;2022-12-20T07:33:15;41.63;;;21.83;;
1178;SDS011;578;48.408;10.004;2022-12-20T07:35:42;38.17;;;21.67;;
1178;SDS011;578;48.408;10.004;2022-12-20T07:38:09;37.80;;;21.35;;
1178;SDS011;578;48.408;10.004;2022-12-20T07:40:38;37.15;;;20.48;;
1178;SDS011;578;48.408;10.004;2022-12-20T07:43:06;36.15;;;19.92;;
1178;SDS011;578;48.408;10.004;2022-12-20T07:45:32;41.70;;;20.95;;
1178;SDS011;578;48.408;10.004;2022-12-20T07:47:59;36.72;;;20.98;;
1178;SDS011;578;48.408;10.004;2022-12-20T07:50:27;36.88;;;19.85;;
1178;SDS011;578;48.408;10.004;2022-12-20T07:52:56;36.95;;;19.73;;
1178;SDS011;578;48.408;10.004;2022-12-20T07:55:23;37.67;;;21.98;;
1178;SDS011;578;48.408;10.004;2022-12-20T07:57:50;36.60;;;19.50;;
1178;SDS011;578;48.408;10.004;2022-12-20T08:00:19;40.42;;;22.00;;
1178;SDS011;578;48.408;10.004;2022-12-20T08:02:46;39.58;;;21.27;;
1178;SDS011;578;48.408;10.004;2022-12-20T08:05:18;36.25;;;21.52;;
1178;SDS011;578;48.408;10.004;2022-12-20T08:07:47;41.22;;;21.25;;
1178;SDS011;578;48.408;10.004;2022-12-20T08:10:14;40.80;;;19.52;;
1178;SDS011;578;48.408;10.004;2022-12-20T08:12:43;37.75;;;20.40;;
1178;SDS011;578;48.408;10.004;2022-12-20T08:15:12;41.58;;;21.00;;
1178;SDS011;578;48.408;10.004;2022-12-20T08:17:40;35.22;;;18.90;;
1178;SDS011;578;48.408;10.004;2022-12-20T08:20:07;51.85;;;23.20;;
1178;SDS011;578;48.408;10.004;2022-12-20T08:22:34;37.72;;;20.35;;
1178;SDS011;578;48.408;10.004;2022-12-20T08:25:02;35.33;;;20.95;;
1178;SDS011;578;48.408;10.004;2022-12-20T08:27:30;37.50;;;22.20;;
1178;SDS011;578;48.408;10.004;2022-12-20T08:29:57;33.97;;;19.20;;
1178;SDS011;578;48.408;10.004;2022-12-20T08:32:24;41.22;;;19.48;;
1178;SDS011;578;48.408;10.004;2022-12-20T08:34:51;39.10;;;22.23;;
1178;SDS011;578;48.408;10.004;2022-12-20T08:37:18;33.75;;;21.23;;
1178;SDS011;578;48.408;10.004;2022-12-20T08:39:44;32.45;;;21.85;;
1178;SDS011;578;48.408;10.004;2022-12-20T08:42:13;35.95;;;20.23;;
1178;SDS011;578;48.408;10.004;2022-12-20T08:44:40;35.00;;;20.25;;
1178;SDS011;578;48.408;10.004;2022-12-20T08:47:08;34.90;;;20.35;;
1178;SDS011;578;48.408;10.004;2022-12-20T08:49:35;35.83;;;21.23;;
1178;SDS011;578;48.408;10.004;2022-12-20T08:52:02;30.73;;;18.63;;
1178;SDS011;578;48.408;10.004;2022-12-20T08:54:29;31.88;;;19.00;;
1178;SDS011;578;48.408;10.004;2022-12-20T08:56:56;35.80;;;21.48;;
1178;SDS011;578;48.408;10.004;2022-12-20T08:59:24;29.45;;;20.33;;
1178;SDS011;578;48.408;10.004;2022-12-20T09:01:51;39.53;;;20.75;;
1178;SDS011;578;48.408;10.004;2022-12-20T09:04:18;30.90;;;19.63;;
1178;SDS011;578;48.408;10.004;2022-12-20T09:06:45;26.63;;;19.25;;
1178;SDS011;578;48.408;10.004;2022-12-20T09:09:12;32.10;;;19.27;;
1178;SDS011;578;48.408;10.004;2022-12-20T09:11:40;36.78;;;19.98;;
1178;SDS011;578;48.408;10.004;2022-12-20T09:14:07;31.20;;;20.20;;
1178;SDS011;578;48.408;10.004;2022-12-20T09:16:35;37.08;;;20.88;;
1178;SDS011;578;48.408;10.004;2022-12-20T09:19:03;33.40;;;20.15;;
1178;SDS011;578;48.408;10.004;2022-12-20T09:21:31;36.15;;;21.45;;
1178;SDS011;578;48.408;10.004;2022-12-20T09:23:58;37.67;;;23.30;;
1178;SDS011;578;48.408;10.004;2022-12-20T09:26:25;38.67;;;21.30;;
1178;SDS011;578;48.408;10.004;2022-12-20T09:28:52;36.28;;;21.20;;
1178;SDS011;578;48.408;10.004;2022-12-20T09:31:19;30.77;;;21.70;;
1178;SDS011;578;48.408;10.004;2022-12-20T09:33:51;31.25;;;21.77;;
1178;SDS011;578;48.408;10.004;2022-12-20T09:36:19;37.60;;;22.58;;
1178;SDS011;578;48.408;10.004;2022-12-20T09:38:47;31.63;;;20.80;;
1178;SDS011;578;48.408;10.004;2022-12-20T09:41:16;32.95;;;19.02;;
1178;SDS011;578;48.408;10.004;2022-12-20T09:43:49;33.42;;;20.35;;
1178;SDS011;578;48.408;10.004;2022-12-20T09:46:17;33.88;;;19.65;;
1178;SDS011;578;48.408;10.004;2022-12-20T09:48:44;33.88;;;19.02;;
1178;SDS011;578;48.408;10.004;2022-12-20T09:51:15;39.55;;;21.08;;
1178;SDS011;578;48.408;10.004;2022-12-20T09:53:55;34.08;;;20.50;;
1178;SDS011;578;48.408;10.004;2022-12-20T09:56:31;30.90;;;19.63;;
1178;SDS011;578;48.408;10.004;2022-12-20T09:59:03;36.42;;;21.45;;
1178;SDS011;578;48.408;10.004;2022-12-20T10:01:32;38.33;;;22.60;;
1178;SDS011;578;48.408;10.004;2022-12-20T10:04:01;37.53;;;20.50;;
1178;SDS011;578;48.408;10.004;2022-12-20T10:06:35;34.13;;;20.65;;
1178;SDS011;578;48.408;10.004;2022-12-20T10:09:15;33.67;;;19.92;;
1178;SDS011;578;48.408;10.004;2022-12-20T10:11:55;31.10;;;20.38;;
1178;SDS011;578;48.408;10.004;2022-12-20T10:14:36;33.28;;;19.17;;
1178;SDS011;578;48.408;10.004;2022-12-20T10:17:26;35.88;;;20.70;;
1178;SDS011;578;48.408;10.004;2022-12-20T10:20:05;31.23;;;18.00;;
1178;SDS011;578;48.408;10.004;2022-12-20T10:22:50;28.37;;;18.33;;
1178;SDS011;578;48.408;10.004;2022-12-20T10:25:23;33.33;;;18.67;;
1178;SDS011;578;48.408;10.004;2022-12-20T10:27:55;30.60;;;18.08;;
1178;SDS011;578;48.408;10.004;2022-12-20T10:30:23;31.40;;;19.10;;
1178;SDS011;578;48.408;10.004;2022-12-20T10:32:54;27.52;;;16.60;;
1178;SDS011;578;48.408;10.004;2022-12-20T10:35:23;29.10;;;16.70;;
1178;SDS011;578;48.408;10.004;2022-12-20T10:37:59;27.93;;;17.73;;
1178;SDS011;578;48.408;10.004;2022-12-20T10:40:28;25.13;;;16.63;;
1178;SDS011;578;48.408;10.004;2022-12-20T10:42:56;27.50;;;17.27;;
1178;SDS011;578;48.408;10.004;2022-12-20T10:45:25;29.20;;;18.93;;
1178;SDS011;578;48.408;10.004;2022-12-20T10:47:57;25.50;;;15.87;;
1178;SDS011;578;48.408;10.004;2022-12-20T10:50:25;28.10;;;17.40;;
1178;SDS011;578;48.408;10.004;2022-12-20T10:55:46;28.97;;;16.47;;
1178;SDS011;578;48.408;10.004;2022-12-20T10:58:14;23.00;;;16.00;;
1178;SDS011;578;48.408;10.004;2022-12-20T11:00:42;29.43;;;16.67;;
1178;SDS011;578;48.408;10.004;2022-12-20T11:03:11;20.40;;;14.57;;
1178;SDS011;578;48.408;10.004;2022-12-20T11:05:40;24.83;;;16.80;;
1178;SDS011;578;48.408;10.004;2022-12-20T11:08:20;24.40;;;16.13;;
1178;SDS011;578;48.408;10.004;2022-12-20T11:10:50;27.67;;;17.63;;
1178;SDS011;578;48.408;10.004;2022-12-20T11:13:35;25.13;;;16.47;;
1178;SDS011;578;48.408;10.004;2022-12-20T11:16:02;26.50;;;16.93;;
1178;SDS011;578;48.408;10.004;2022-12-20T11:18:35;22.70;;;16.50;;
1178;SDS011;578;48.408;10.004;2022-12-20T11:21:12;19.70;;;15.27;;
1178;SDS011;578;48.408;10.004;2022-12-20T11:23:49;21.63;;;15.90;;
1178;SDS011;578;48.408;10.004;2022-12-20T11:26:29;22.60;;;15.27;;
1178;SDS011;578;48.408;10.004;2022-12-20T11:29:09;22.83;;;15.33;;
1178;SDS011;578;48.408;10.004;2022-12-20T11:31:47;23.30;;;16.07;;
1178;SDS011;578;48.408;10.004;2022-12-20T11:34:22;23.07;;;14.90;;
1178;SDS011;578;48.408;10.004;2022-12-20T11:37:03;20.57;;;14.90;;
1178;SDS011;578;48.408;10.004;2022-12-20T11:39:46;25.53;;;16.17;;
1178;SDS011;578;48.408;10.004;2022-12-20T11:42:24;23.00;;;16.80;;
1178;SDS011;578;48.408;10.004;2022-12-20T11:44:57;24.03;;;15.87;;
1178;SDS011;578;48.408;10.004;2022-12-20T11:47:46;23.37;;;15.40;;
1178;SDS011;578;48.408;10.004;2022-12-20T11:50:35;26.83;;;16.30;;
1178;SDS011;578;48.408;10.004;2022-12-20T11:53:12;22.70;;;14.13;;
1178;SDS011;578;48.408;10.004;2022-12-20T11:55:48;23.60;;;14.13;;
1178;SDS011;578;48.408;10.004;2022-12-20T11:58:19;24.80;;;16.63;;
1178;SDS011;578;48.408;10.004;2022-12-20T12:00:52;28.60;;;17.20;;
1178;SDS011;578;48.408;10.004;2022-12-20T12:03:25;21.90;;;15.77;;
1178;SDS011;578;48.408;10.004;2022-12-20T12:05:55;22.07;;;16.30;;
1178;SDS011;578;48.408;10.004;2022-12-20T12:08:27;25.07;;;16.40;;
1178;SDS011;578;48.408;10.004;2022-12-20T12:11:03;27.13;;;14.47;;
1178;SDS011;578;48.408;10.004;2022-12-20T12:13:35;22.80;;;14.67;;
1178;SDS011;578;48.408;10.004;2022-12-20T12:16:05;25.97;;;16.23;;
1178;SDS011;578;48.408;10.004;2022-12-20T12:18:35;22.07;;;15.07;;
1178;SDS011;578;48.408;10.004;2022-12-20T12:21:05;22.13;;;15.83;;
1178;SDS011;578;48.408;10.004;2022-12-20T12:23:38;24.57;;;16.60;;
1178;SDS011;578;48.408;10.004;2022-12-20T12:26:16;23.03;;;16.00;;
1178;SDS011;578;48.408;10.004;2022-12-20T12:28:46;30.03;;;17.73;;
1178;SDS011;578;48.408;10.004;2022-12-20T12:31:20;23.00;;;15.03;;
1178;SDS011;578;48.408;10.004;2022-12-20T12:33:54;22.27;;;15.53;;
1178;SDS011;578;48.408;10.004;2022-12-20T12:36:48;25.27;;;16.30;;
1178;SDS011;578;48.408;10.004;2022-12-20T12:45:49;22.03;;;17.27;;
1178;SDS011;578;48.408;10.004;2022-12-20T12:48:19;22.10;;;16.33;;
1178;SDS011;578;48.408;10.004;2022-12-20T12:50:49;25.17;;;17.90;;
1178;SDS011;578;48.408;10.004;2022-12-20T12:53:18;24.60;;;16.87;;
1178;SDS011;578;48.408;10.004;2022-12-20T12:55:48;27.60;;;16.60;;
1178;SDS011;578;48.408;10.004;2022-12-20T13:01:07;22.17;;;16.03;;
1178;SDS011;578;48.408;10.004;2022-12-20T13:03:42;23.17;;;16.40;;
1178;SDS011;578;48.408;10.004;2022-12-20T13:09:37;25.10;;;16.57;;
1178;SDS011;578;48.408;10.004;2022-12-20T13:18:24;21.50;;;15.37;;
1178;SDS011;578;48.408;10.004;2022-12-20T13:27:26;20.77;;;14.63;;
1178;SDS011;578;48.408;10.004;2022-12-20T13:32:57;25.50;;;16.20;;
1178;SDS011;578;48.408;10.004;2022-12-20T13:35:42;29.80;;;16.50;;
1178;SDS011;578;48.408;10.004;2022-12-20T13:41:22;22.93;;;16.43;;
1178;SDS011;578;48.408;10.004;2022-12-20T13:43:57;25.13;;;16.23;;
1178;SDS011;578;48.408;10.004;2022-12-20T13:46:30;24.30;;;16.57;;
1178;SDS011;578;48.408;10.004;2022-12-20T13:49:06;23.53;;;17.10;;
1178;SDS011;578;48.408;10.004;2022-12-20T13:51:38;25.10;;;19.73;;
1178;SDS011;578;48.408;10.004;2022-12-20T13:54:06;28.50;;;16.60;;
1178;SDS011;578;48.408;10.004;2022-12-20T13:56:41;23.30;;;15.80;;
1178;SDS011;578;48.408;10.004;2022-12-20T13:59:13;24.03;;;15.87;;
1178;SDS011;578;48.408;10.004;2022-12-20T14:01:46;26.63;;;16.00;;
1178;SDS011;578;48.408;10.004;2022-12-20T14:04:14;22.63;;;14.67;;
1178;SDS011;578;48.408;10.004;2022-12-20T14:06:44;25.00;;;15.67;;
1178;SDS011;578;48.408;10.004;2022-12-20T14:09:26;22.23;;;12.97;;
1178;SDS011;578;48.408;10.004;2022-12-20T14:12:01;21.97;;;14.60;;
1178;SDS011;578;48.408;10.004;2022-12-20T14:14:29;24.70;;;15.37;;
1178;SDS011;578;48.408;10.004;2022-12-20T14:20:00;23.00;;;14.70;;
1178;SDS011;578;48.408;10.004;2022-12-20T14:22:32;21.93;;;14.13;;
1178;SDS011;578;48.408;10.004;2022-12-20T14:25:01;25.50;;;16.73;;
1178;SDS011;578;48.408;10.004;2022-12-20T14:27:32;20.10;;;15.60;;
1178;SDS011;578;48.408;10.004;2022-12-20T14:30:01;19.00;;;14.03;;
1178;SDS011;578;48.408;10.004;2022-12-20T14:32:28;27.63;;;17.13;;
1178;SDS011;578;48.408;10.004;2022-12-20T14:34:55;25.00;;;18.30;;
1178;SDS011;578;48.408;10.004;2022-12-20T14:37:29;26.60;;;16.83;;
1178;SDS011;578;48.408;10.004;2022-12-20T14:39:59;27.53;;;17.70;;
1178;SDS011;578;48.408;10.004;2022-12-20T14:42:28;29.40;;;16.63;;
1178;SDS011;578;48.408;10.004;2022-12-20T14:45:03;24.67;;;15.77;;
1178;SDS011;578;48.408;10.004;2022-12-20T14:47:32;25.47;;;16.87;;
1178;SDS011;578;48.408;10.004;2022-12-20T14:49:59;24.27;;;15.43;;
1178;SDS011;578;48.408;10.004;2022-12-20T14:52:29;30.87;;;15.40;;
1178;SDS011;578;48.408;10.004;2022-12-20T14:55:03;24.63;;;15.40;;
1178;SDS011;578;48.408;10.004;2022-12-20T14:57:37;23.40;;;15.57;;
1178;SDS011;578;48.408;10.004;2022-12-20T15:00:09;24.48;;;16.10;;
1178;SDS011;578;48.408;10.004;2022-12-20T15:02:39;23.15;;;15.65;;
1178;SDS011;578;48.408;10.004;2022-12-20T15:05:08;23.43;;;15.63;;
1178;SDS011;578;48.408;10.004;2022-12-20T15:07:54;26.50;;;16.08;;
1178;SDS011;578;48.408;10.004;2022-12-20T15:10:22;28.08;;;16.98;;
1178;SDS011;578;48.408;10.004;2022-12-20T15:12:48;22.37;;;15.63;;
1178;SDS011;578;48.408;10.004;2022-12-20T15:15:15;23.15;;;16.80;;
1178;SDS011;578;48.408;10.004;2022-12-20T15:17:42;24.52;;;15.25;;
1178;SDS011;578;48.408;10.004;2022-12-20T15:20:10;24.38;;;15.65;;
1178;SDS011;578;48.408;10.004;2022-12-20T15:22:38;25.23;;;17.38;;
1178;SDS011;578;48.408;10.004;2022-12-20T15:25:07;24.67;;;16.52;;
1178;SDS011;578;48.408;10.004;2022-12-20T15:27:41;20.30;;;15.20;;
1178;SDS011;578;48.408;10.004;2022-12-20T15:30:10;26.85;;;16.25;;
1178;SDS011;578;48.408;10.004;2022-12-20T15:32:37;26.20;;;15.40;;
1178;SDS011;578;48.408;10.004;2022-12-20T15:35:05;20.60;;;14.77;;
1178;SDS011;578;48.408;10.004;2022-12-20T15:37:38;24.27;;;16.58;;
1178;SDS011;578;48.408;10.004;2022-12-20T15:40:05;25.33;;;19.10;;
1178;SDS011;578;48.408;10.004;2022-12-20T15:42:33;25.48;;;17.23;;